Flight Briefing for GRZ504

Departure Arrival
Fairbanks International Airport (PAFA)
Click to view FAA NOTAMS
Ted Stevens Anchorage International Airport (PANC)
Click to view FAA NOTAMS
Departure Time Arrival Time
N/A N/A
Aircraft Distance
B727-200F 227nm
Departure METAR Arrival METAR
PAFA 271053Z 23009KT 10SM BKN120 BKN180 17/03 A2957 RMK AO2 SLP017 T01720028 PANC 271053Z 15015G23KT 10SM FEW080 SCT110 SCT220 11/05 A2980 RMK AO2 PK WND 14031/1000 SLP092 T01110050
Suggested Route
PUYVO2 PUYVO KROTO4


View recent IFR Routes data
Notes



Charts and Procedures

Charts for PAFA
No chart available
Charts for PANC
No chart available

Windy.com Weather Map